Edina, MO (63537)

5:39 PM CDT on April 27, 2017 (GMT -0500)
Metro Laplata | | Change Station

Elev 951 ft 40.02 °N, 92.49 °W | Updated 36 seconds ago

Mostly Cloudy
Mostly Cloudy
61.0 °F
Feels Like 61.0 °F
N
3.4
Wind Variable Wind from SW
Gusts 6.0 mph

Today
High -- | Low -- °F
--% Chance of Precip.
Yesterday
High -- | Low -- °F
Precip. -- in
Pressure 29.74 in
Visibility 10.0 miles
Clouds Mostly Cloudy 4400 ft
Dew Point 43 °F
Humidity 51%
Rainfall 0.11 in
Snow Depth Not available.
6:13 AM 7:59 PM
Waxing Crescent, 3% visible
METAR KIRK 272155Z AUTO 23008G17KT 10SM BKN044 15/06 A2972 RMK AO2 SLP069 T01500056
Pressure 29.74 in
Visibility 10.0 miles
Clouds Mostly Cloudy 4400 ft
Dew Point 43 °F
Humidity 51%
Rainfall 0.11 in
Snow Depth Not available.
6:13 AM 7:59 PM
Waxing Crescent, 3% visible
METAR KIRK 272155Z AUTO 23008G17KT 10SM BKN044 15/06 A2972 RMK AO2 SLP069 T01500056

Get Severe Weather Alerts

Thanks for signing up!

Be on the lookout for a verification email in your inbox.

You'll start receiving the daily forecast at 8 AM.

×

10-Day Weather Forecast

Almanac

Astronomy

Apr. 27, 2017 Rise Set
Actual Time
Civil Twilight
Nautical Twilight
Astronomical Twilight
Moon
Length of Visible Light
Length of Day
Tomorrow will be .
, % of the Moon is Illuminated

Today's Extremes

State Highs State Lows

Community

WunderPhotos

WunderBlog® & News

Nearby

Air Quality

  Air Quality AQ Index Pollutant
Not available.

Snow Depth

Station Depth Elevation

Earthquake Activity

City Distance Mag. Time & Date
Minimum magnitude displayed is 2.5.

Coastal Water Temperatures

Place Temperature

Stations

Nearby Weather Stations

Station Location Temp. Windchill Dew Point Humidity Wind Precip. Elev Updated Type
                   

Watches & Warnings

There are currently no watches in effect.